sensor_id;sensor_type;location;lat;lon;timestamp;P1;durP1;ratioP1;P2;durP2;ratioP2
27505;SDS011;14939;43.596;1.320;2023-02-28T00:00:34;7.93;;;6.57;;
27505;SDS011;14939;43.596;1.320;2023-02-28T00:03:00;10.55;;;6.72;;
27505;SDS011;14939;43.596;1.320;2023-02-28T00:05:27;21.58;;;13.57;;
27505;SDS011;14939;43.596;1.320;2023-02-28T00:07:54;12.02;;;7.55;;
27505;SDS011;14939;43.596;1.320;2023-02-28T00:10:25;9.88;;;6.40;;
27505;SDS011;14939;43.596;1.320;2023-02-28T00:12:54;9.52;;;6.30;;
27505;SDS011;14939;43.596;1.320;2023-02-28T00:15:22;10.40;;;6.80;;
27505;SDS011;14939;43.596;1.320;2023-02-28T00:17:48;11.50;;;7.00;;
27505;SDS011;14939;43.596;1.320;2023-02-28T00:20:15;11.90;;;7.70;;
27505;SDS011;14939;43.596;1.320;2023-02-28T00:22:43;9.23;;;6.47;;
27505;SDS011;14939;43.596;1.320;2023-02-28T00:25:11;10.85;;;7.85;;
27505;SDS011;14939;43.596;1.320;2023-02-28T00:27:38;11.27;;;7.65;;
27505;SDS011;14939;43.596;1.320;2023-02-28T00:30:05;12.02;;;8.93;;
27505;SDS011;14939;43.596;1.320;2023-02-28T00:32:33;15.20;;;8.18;;
27505;SDS011;14939;43.596;1.320;2023-02-28T00:34:59;10.75;;;7.05;;
27505;SDS011;14939;43.596;1.320;2023-02-28T00:37:25;15.77;;;10.25;;
27505;SDS011;14939;43.596;1.320;2023-02-28T00:39:51;12.55;;;7.80;;
27505;SDS011;14939;43.596;1.320;2023-02-28T00:42:17;12.93;;;8.25;;
27505;SDS011;14939;43.596;1.320;2023-02-28T00:44:42;13.25;;;8.52;;
27505;SDS011;14939;43.596;1.320;2023-02-28T00:47:08;10.65;;;6.85;;
27505;SDS011;14939;43.596;1.320;2023-02-28T00:49:34;9.73;;;7.03;;
27505;SDS011;14939;43.596;1.320;2023-02-28T00:51:59;10.60;;;7.88;;
27505;SDS011;14939;43.596;1.320;2023-02-28T00:54:25;11.43;;;8.10;;
27505;SDS011;14939;43.596;1.320;2023-02-28T00:56:51;11.32;;;8.02;;
27505;SDS011;14939;43.596;1.320;2023-02-28T00:59:17;12.70;;;8.35;;
27505;SDS011;14939;43.596;1.320;2023-02-28T01:01:43;12.27;;;8.05;;
27505;SDS011;14939;43.596;1.320;2023-02-28T01:04:10;12.15;;;8.93;;
27505;SDS011;14939;43.596;1.320;2023-02-28T01:06:36;13.60;;;7.28;;
27505;SDS011;14939;43.596;1.320;2023-02-28T01:09:02;11.40;;;8.02;;
27505;SDS011;14939;43.596;1.320;2023-02-28T01:11:28;11.30;;;8.00;;
27505;SDS011;14939;43.596;1.320;2023-02-28T01:13:54;12.52;;;7.40;;
27505;SDS011;14939;43.596;1.320;2023-02-28T01:16:20;12.77;;;6.60;;
27505;SDS011;14939;43.596;1.320;2023-02-28T01:18:45;10.32;;;7.15;;
27505;SDS011;14939;43.596;1.320;2023-02-28T01:21:12;12.43;;;7.38;;
27505;SDS011;14939;43.596;1.320;2023-02-28T01:23:41;10.43;;;7.07;;
27505;SDS011;14939;43.596;1.320;2023-02-28T01:26:11;12.98;;;7.50;;
27505;SDS011;14939;43.596;1.320;2023-02-28T01:28:48;9.52;;;7.22;;
27505;SDS011;14939;43.596;1.320;2023-02-28T01:31:15;12.05;;;6.95;;
27505;SDS011;14939;43.596;1.320;2023-02-28T01:33:41;10.75;;;6.88;;
27505;SDS011;14939;43.596;1.320;2023-02-28T01:36:17;13.25;;;7.30;;
27505;SDS011;14939;43.596;1.320;2023-02-28T01:38:47;12.73;;;7.10;;
27505;SDS011;14939;43.596;1.320;2023-02-28T01:41:24;10.98;;;6.97;;
27505;SDS011;14939;43.596;1.320;2023-02-28T01:46:56;11.18;;;7.32;;
27505;SDS011;14939;43.596;1.320;2023-02-28T01:49:22;10.57;;;7.50;;
27505;SDS011;14939;43.596;1.320;2023-02-28T01:51:51;14.10;;;7.95;;
27505;SDS011;14939;43.596;1.320;2023-02-28T01:54:26;12.50;;;7.60;;
27505;SDS011;14939;43.596;1.320;2023-02-28T01:57:05;12.63;;;7.75;;
27505;SDS011;14939;43.596;1.320;2023-02-28T02:02:17;10.68;;;7.03;;
27505;SDS011;14939;43.596;1.320;2023-02-28T02:04:56;10.77;;;7.07;;
27505;SDS011;14939;43.596;1.320;2023-02-28T02:07:32;10.65;;;7.30;;
27505;SDS011;14939;43.596;1.320;2023-02-28T02:15:16;11.32;;;7.57;;
27505;SDS011;14939;43.596;1.320;2023-02-28T02:17:56;11.45;;;8.05;;
27505;SDS011;14939;43.596;1.320;2023-02-28T02:20:32;13.85;;;7.95;;
27505;SDS011;14939;43.596;1.320;2023-02-28T02:28:54;14.32;;;8.52;;
27505;SDS011;14939;43.596;1.320;2023-02-28T02:37:38;11.05;;;8.00;;
27505;SDS011;14939;43.596;1.320;2023-02-28T02:43:15;15.55;;;8.40;;
27505;SDS011;14939;43.596;1.320;2023-02-28T02:45:43;14.73;;;9.55;;
27505;SDS011;14939;43.596;1.320;2023-02-28T02:48:12;15.85;;;9.80;;
27505;SDS011;14939;43.596;1.320;2023-02-28T02:50:45;11.50;;;8.57;;
27505;SDS011;14939;43.596;1.320;2023-02-28T02:56:25;12.48;;;8.50;;
27505;SDS011;14939;43.596;1.320;2023-02-28T02:58:53;13.10;;;8.48;;
27505;SDS011;14939;43.596;1.320;2023-02-28T03:01:22;12.65;;;9.13;;
27505;SDS011;14939;43.596;1.320;2023-02-28T03:04:13;14.15;;;8.93;;
27505;SDS011;14939;43.596;1.320;2023-02-28T03:06:43;12.30;;;8.20;;
27505;SDS011;14939;43.596;1.320;2023-02-28T03:09:09;13.70;;;8.57;;
27505;SDS011;14939;43.596;1.320;2023-02-28T03:11:35;12.93;;;8.50;;
27505;SDS011;14939;43.596;1.320;2023-02-28T03:24:55;13.07;;;9.13;;
27505;SDS011;14939;43.596;1.320;2023-02-28T03:35:44;14.55;;;8.48;;
27505;SDS011;14939;43.596;1.320;2023-02-28T03:40:51;13.10;;;8.82;;
27505;SDS011;14939;43.596;1.320;2023-02-28T03:43:26;14.20;;;9.43;;
27505;SDS011;14939;43.596;1.320;2023-02-28T03:45:56;17.25;;;9.82;;
27505;SDS011;14939;43.596;1.320;2023-02-28T03:48:26;15.02;;;9.52;;
27505;SDS011;14939;43.596;1.320;2023-02-28T03:51:00;14.18;;;8.52;;
27505;SDS011;14939;43.596;1.320;2023-02-28T03:53:29;12.98;;;8.45;;
27505;SDS011;14939;43.596;1.320;2023-02-28T03:56:01;11.45;;;8.45;;
27505;SDS011;14939;43.596;1.320;2023-02-28T04:03:58;10.97;;;7.80;;
27505;SDS011;14939;43.596;1.320;2023-02-28T04:06:24;13.40;;;8.00;;
27505;SDS011;14939;43.596;1.320;2023-02-28T04:08:50;11.40;;;8.32;;
27505;SDS011;14939;43.596;1.320;2023-02-28T04:11:18;14.05;;;9.13;;
27505;SDS011;14939;43.596;1.320;2023-02-28T04:13:52;11.73;;;8.77;;
27505;SDS011;14939;43.596;1.320;2023-02-28T04:16:18;13.85;;;8.80;;
27505;SDS011;14939;43.596;1.320;2023-02-28T04:18:44;12.98;;;8.52;;
27505;SDS011;14939;43.596;1.320;2023-02-28T04:21:10;11.88;;;8.38;;
27505;SDS011;14939;43.596;1.320;2023-02-28T04:23:36;12.57;;;8.95;;
27505;SDS011;14939;43.596;1.320;2023-02-28T04:26:02;12.98;;;8.63;;
27505;SDS011;14939;43.596;1.320;2023-02-28T04:28:29;15.40;;;9.00;;
27505;SDS011;14939;43.596;1.320;2023-02-28T04:31:02;13.15;;;8.98;;
27505;SDS011;14939;43.596;1.320;2023-02-28T04:33:29;12.95;;;9.23;;
27505;SDS011;14939;43.596;1.320;2023-02-28T04:36:02;18.77;;;10.65;;
27505;SDS011;14939;43.596;1.320;2023-02-28T04:38:33;17.10;;;9.88;;
27505;SDS011;14939;43.596;1.320;2023-02-28T04:41:01;20.90;;;11.20;;
27505;SDS011;14939;43.596;1.320;2023-02-28T04:43:26;17.92;;;10.65;;
27505;SDS011;14939;43.596;1.320;2023-02-28T04:45:53;24.45;;;12.85;;
27505;SDS011;14939;43.596;1.320;2023-02-28T04:48:23;21.63;;;12.38;;
27505;SDS011;14939;43.596;1.320;2023-02-28T04:50:49;28.42;;;13.48;;
27505;SDS011;14939;43.596;1.320;2023-02-28T04:53:15;19.38;;;10.95;;
27505;SDS011;14939;43.596;1.320;2023-02-28T04:55:41;13.85;;;9.38;;
27505;SDS011;14939;43.596;1.320;2023-02-28T04:58:07;15.32;;;10.55;;
27505;SDS011;14939;43.596;1.320;2023-02-28T05:00:33;14.00;;;9.60;;
27505;SDS011;14939;43.596;1.320;2023-02-28T05:02:59;14.20;;;9.70;;
27505;SDS011;14939;43.596;1.320;2023-02-28T05:05:24;14.70;;;9.43;;
27505;SDS011;14939;43.596;1.320;2023-02-28T05:07:50;16.13;;;9.65;;
27505;SDS011;14939;43.596;1.320;2023-02-28T05:10:16;15.00;;;10.00;;
27505;SDS011;14939;43.596;1.320;2023-02-28T05:12:42;14.45;;;9.70;;
27505;SDS011;14939;43.596;1.320;2023-02-28T05:15:08;17.40;;;10.23;;
27505;SDS011;14939;43.596;1.320;2023-02-28T05:17:39;14.30;;;10.30;;
27505;SDS011;14939;43.596;1.320;2023-02-28T05:20:04;15.07;;;10.05;;
27505;SDS011;14939;43.596;1.320;2023-02-28T05:22:31;16.73;;;10.20;;
27505;SDS011;14939;43.596;1.320;2023-02-28T05:24:57;14.73;;;10.35;;
27505;SDS011;14939;43.596;1.320;2023-02-28T05:27:22;17.40;;;10.85;;
27505;SDS011;14939;43.596;1.320;2023-02-28T05:29:48;17.48;;;10.85;;
27505;SDS011;14939;43.596;1.320;2023-02-28T05:32:14;16.75;;;11.23;;
27505;SDS011;14939;43.596;1.320;2023-02-28T05:34:40;16.73;;;11.48;;
27505;SDS011;14939;43.596;1.320;2023-02-28T05:37:06;20.70;;;11.68;;
27505;SDS011;14939;43.596;1.320;2023-02-28T05:39:36;16.80;;;11.88;;
27505;SDS011;14939;43.596;1.320;2023-02-28T05:42:02;18.60;;;11.45;;
27505;SDS011;14939;43.596;1.320;2023-02-28T05:44:28;17.50;;;12.25;;
27505;SDS011;14939;43.596;1.320;2023-02-28T05:46:54;18.08;;;11.88;;
27505;SDS011;14939;43.596;1.320;2023-02-28T05:49:19;20.17;;;12.70;;
27505;SDS011;14939;43.596;1.320;2023-02-28T05:51:45;21.27;;;13.10;;
27505;SDS011;14939;43.596;1.320;2023-02-28T05:54:11;21.17;;;13.73;;
27505;SDS011;14939;43.596;1.320;2023-02-28T05:56:37;19.10;;;13.32;;
27505;SDS011;14939;43.596;1.320;2023-02-28T05:59:08;21.05;;;13.98;;
27505;SDS011;14939;43.596;1.320;2023-02-28T06:01:36;20.15;;;13.30;;
27505;SDS011;14939;43.596;1.320;2023-02-28T06:04:03;21.30;;;14.32;;
27505;SDS011;14939;43.596;1.320;2023-02-28T06:06:30;21.98;;;13.75;;
27505;SDS011;14939;43.596;1.320;2023-02-28T06:08:59;23.88;;;13.18;;
27505;SDS011;14939;43.596;1.320;2023-02-28T06:11:25;20.95;;;13.75;;
27505;SDS011;14939;43.596;1.320;2023-02-28T06:13:58;21.90;;;13.80;;
27505;SDS011;14939;43.596;1.320;2023-02-28T06:16:29;25.38;;;14.43;;
27505;SDS011;14939;43.596;1.320;2023-02-28T06:18:57;21.25;;;13.70;;
27505;SDS011;14939;43.596;1.320;2023-02-28T06:21:24;20.95;;;13.90;;
27505;SDS011;14939;43.596;1.320;2023-02-28T06:23:50;22.58;;;13.63;;
27505;SDS011;14939;43.596;1.320;2023-02-28T06:26:16;20.20;;;12.63;;
27505;SDS011;14939;43.596;1.320;2023-02-28T06:28:42;19.25;;;12.55;;
27505;SDS011;14939;43.596;1.320;2023-02-28T06:31:11;22.67;;;13.57;;
27505;SDS011;14939;43.596;1.320;2023-02-28T06:36:06;21.10;;;13.40;;
27505;SDS011;14939;43.596;1.320;2023-02-28T06:38:32;22.90;;;14.02;;
27505;SDS011;14939;43.596;1.320;2023-02-28T06:40:59;30.70;;;17.17;;
27505;SDS011;14939;43.596;1.320;2023-02-28T06:43:27;28.55;;;16.08;;
27505;SDS011;14939;43.596;1.320;2023-02-28T06:45:55;25.58;;;15.73;;
27505;SDS011;14939;43.596;1.320;2023-02-28T06:48:21;22.05;;;15.48;;
27505;SDS011;14939;43.596;1.320;2023-02-28T06:50:47;22.95;;;16.70;;
27505;SDS011;14939;43.596;1.320;2023-02-28T06:53:13;21.88;;;14.77;;
27505;SDS011;14939;43.596;1.320;2023-02-28T06:55:39;22.88;;;14.73;;
27505;SDS011;14939;43.596;1.320;2023-02-28T06:58:05;27.38;;;15.10;;
27505;SDS011;14939;43.596;1.320;2023-02-28T07:00:43;22.23;;;15.30;;
27505;SDS011;14939;43.596;1.320;2023-02-28T07:03:11;31.50;;;16.85;;
27505;SDS011;14939;43.596;1.320;2023-02-28T07:05:37;55.58;;;29.83;;
27505;SDS011;14939;43.596;1.320;2023-02-28T07:08:04;41.88;;;24.67;;
27505;SDS011;14939;43.596;1.320;2023-02-28T07:10:31;31.35;;;21.55;;
27505;SDS011;14939;43.596;1.320;2023-02-28T07:12:58;29.10;;;19.33;;
27505;SDS011;14939;43.596;1.320;2023-02-28T07:15:24;33.65;;;18.95;;
27505;SDS011;14939;43.596;1.320;2023-02-28T07:17:50;35.47;;;18.70;;
27505;SDS011;14939;43.596;1.320;2023-02-28T07:20:16;35.15;;;19.05;;
27505;SDS011;14939;43.596;1.320;2023-02-28T07:22:42;28.35;;;15.88;;
27505;SDS011;14939;43.596;1.320;2023-02-28T07:25:08;24.45;;;15.32;;
27505;SDS011;14939;43.596;1.320;2023-02-28T07:27:34;27.85;;;14.38;;
27505;SDS011;14939;43.596;1.320;2023-02-28T07:30:00;23.10;;;15.68;;
27505;SDS011;14939;43.596;1.320;2023-02-28T07:32:27;24.73;;;15.63;;
27505;SDS011;14939;43.596;1.320;2023-02-28T07:34:53;24.50;;;15.18;;
27505;SDS011;14939;43.596;1.320;2023-02-28T07:37:19;19.98;;;14.45;;
27505;SDS011;14939;43.596;1.320;2023-02-28T07:39:45;22.75;;;13.98;;
27505;SDS011;14939;43.596;1.320;2023-02-28T07:42:11;21.52;;;14.52;;
27505;SDS011;14939;43.596;1.320;2023-02-28T07:44:40;26.20;;;17.20;;
27505;SDS011;14939;43.596;1.320;2023-02-28T07:47:08;32.05;;;19.20;;
27505;SDS011;14939;43.596;1.320;2023-02-28T07:49:37;39.38;;;19.85;;
27505;SDS011;14939;43.596;1.320;2023-02-28T07:52:04;28.95;;;16.08;;
27505;SDS011;14939;43.596;1.320;2023-02-28T07:54:32;19.55;;;13.88;;
27505;SDS011;14939;43.596;1.320;2023-02-28T07:56:58;18.98;;;13.35;;
27505;SDS011;14939;43.596;1.320;2023-02-28T07:59:24;17.17;;;12.07;;
27505;SDS011;14939;43.596;1.320;2023-02-28T08:01:50;20.42;;;11.93;;
27505;SDS011;14939;43.596;1.320;2023-02-28T08:04:17;26.88;;;11.45;;
27505;SDS011;14939;43.596;1.320;2023-02-28T08:06:43;23.80;;;12.90;;
27505;SDS011;14939;43.596;1.320;2023-02-28T08:09:15;19.77;;;11.60;;
27505;SDS011;14939;43.596;1.320;2023-02-28T08:11:41;23.35;;;12.95;;
27505;SDS011;14939;43.596;1.320;2023-02-28T08:14:06;19.98;;;10.32;;
27505;SDS011;14939;43.596;1.320;2023-02-28T08:16:32;16.67;;;10.27;;
27505;SDS011;14939;43.596;1.320;2023-02-28T08:18:58;16.08;;;9.98;;
27505;SDS011;14939;43.596;1.320;2023-02-28T08:21:23;15.57;;;10.02;;
27505;SDS011;14939;43.596;1.320;2023-02-28T08:23:49;12.77;;;9.10;;
27505;SDS011;14939;43.596;1.320;2023-02-28T08:26:16;11.45;;;8.90;;
27505;SDS011;14939;43.596;1.320;2023-02-28T08:28:43;11.32;;;7.90;;
27505;SDS011;14939;43.596;1.320;2023-02-28T08:31:13;14.38;;;8.48;;
27505;SDS011;14939;43.596;1.320;2023-02-28T08:33:40;12.15;;;8.15;;
27505;SDS011;14939;43.596;1.320;2023-02-28T08:36:07;11.50;;;8.32;;
27505;SDS011;14939;43.596;1.320;2023-02-28T08:38:34;13.13;;;8.35;;
27505;SDS011;14939;43.596;1.320;2023-02-28T08:41:02;12.63;;;8.65;;
27505;SDS011;14939;43.596;1.320;2023-02-28T08:43:31;14.10;;;8.95;;
27505;SDS011;14939;43.596;1.320;2023-02-28T08:45:56;10.93;;;8.63;;
27505;SDS011;14939;43.596;1.320;2023-02-28T08:48:23;16.33;;;10.75;;
27505;SDS011;14939;43.596;1.320;2023-02-28T08:51:05;10.88;;;8.85;;
27505;SDS011;14939;43.596;1.320;2023-02-28T08:53:34;13.27;;;8.60;;
27505;SDS011;14939;43.596;1.320;2023-02-28T08:56:02;13.55;;;9.57;;
27505;SDS011;14939;43.596;1.320;2023-02-28T08:58:30;12.68;;;8.45;;
27505;SDS011;14939;43.596;1.320;2023-02-28T09:00:56;11.27;;;8.23;;
27505;SDS011;14939;43.596;1.320;2023-02-28T09:03:22;12.23;;;8.60;;
27505;SDS011;14939;43.596;1.320;2023-02-28T09:05:58;13.98;;;9.57;;
27505;SDS011;14939;43.596;1.320;2023-02-28T09:08:25;14.85;;;8.93;;
27505;SDS011;14939;43.596;1.320;2023-02-28T09:10:54;12.68;;;8.38;;
27505;SDS011;14939;43.596;1.320;2023-02-28T09:13:22;11.77;;;8.23;;
27505;SDS011;14939;43.596;1.320;2023-02-28T09:15:47;13.20;;;8.48;;
27505;SDS011;14939;43.596;1.320;2023-02-28T09:18:13;14.88;;;8.43;;
27505;SDS011;14939;43.596;1.320;2023-02-28T09:20:42;12.40;;;7.93;;
27505;SDS011;14939;43.596;1.320;2023-02-28T09:23:09;13.48;;;8.45;;
27505;SDS011;14939;43.596;1.320;2023-02-28T09:25:36;10.13;;;7.90;;
27505;SDS011;14939;43.596;1.320;2023-02-28T09:28:02;12.35;;;8.18;;
27505;SDS011;14939;43.596;1.320;2023-02-28T09:30:28;12.82;;;8.35;;
27505;SDS011;14939;43.596;1.320;2023-02-28T09:32:55;12.35;;;8.40;;
27505;SDS011;14939;43.596;1.320;2023-02-28T09:35:21;12.57;;;8.38;;
27505;SDS011;14939;43.596;1.320;2023-02-28T09:37:49;11.38;;;7.82;;
27505;SDS011;14939;43.596;1.320;2023-02-28T09:40:17;12.45;;;7.90;;
27505;SDS011;14939;43.596;1.320;2023-02-28T09:42:47;16.92;;;10.13;;
27505;SDS011;14939;43.596;1.320;2023-02-28T09:45:29;15.20;;;10.15;;
27505;SDS011;14939;43.596;1.320;2023-02-28T09:48:07;17.35;;;9.70;;
27505;SDS011;14939;43.596;1.320;2023-02-28T09:50:49;14.25;;;9.20;;
27505;SDS011;14939;43.596;1.320;2023-02-28T09:53:28;11.32;;;8.45;;
27505;SDS011;14939;43.596;1.320;2023-02-28T09:55:59;11.98;;;8.68;;
27505;SDS011;14939;43.596;1.320;2023-02-28T09:58:29;11.68;;;7.40;;
27505;SDS011;14939;43.596;1.320;2023-02-28T10:01:09;12.38;;;8.00;;
27505;SDS011;14939;43.596;1.320;2023-02-28T10:03:56;15.35;;;10.18;;
27505;SDS011;14939;43.596;1.320;2023-02-28T10:06:39;14.85;;;8.55;;
27505;SDS011;14939;43.596;1.320;2023-02-28T10:09:11;11.73;;;7.80;;
27505;SDS011;14939;43.596;1.320;2023-02-28T10:11:42;10.88;;;7.15;;
27505;SDS011;14939;43.596;1.320;2023-02-28T10:14:12;12.10;;;8.15;;
27505;SDS011;14939;43.596;1.320;2023-02-28T10:19:11;10.70;;;8.07;;
27505;SDS011;14939;43.596;1.320;2023-02-28T10:22:05;13.48;;;9.07;;
27505;SDS011;14939;43.596;1.320;2023-02-28T10:24:37;11.65;;;8.23;;
27505;SDS011;14939;43.596;1.320;2023-02-28T10:27:18;10.60;;;8.40;;
27505;SDS011;14939;43.596;1.320;2023-02-28T10:29:59;13.15;;;9.07;;
27505;SDS011;14939;43.596;1.320;2023-02-28T10:32:30;12.60;;;8.10;;
27505;SDS011;14939;43.596;1.320;2023-02-28T10:35:07;12.57;;;8.60;;
27505;SDS011;14939;43.596;1.320;2023-02-28T10:37:44;11.68;;;7.93;;
27505;SDS011;14939;43.596;1.320;2023-02-28T10:40:25;9.90;;;7.78;;
27505;SDS011;14939;43.596;1.320;2023-02-28T10:43:04;10.45;;;7.75;;
27505;SDS011;14939;43.596;1.320;2023-02-28T10:45:55;13.13;;;7.55;;
27505;SDS011;14939;43.596;1.320;2023-02-28T10:50:52;12.13;;;8.43;;
27505;SDS011;14939;43.596;1.320;2023-02-28T10:58:22;15.00;;;8.68;;
27505;SDS011;14939;43.596;1.320;2023-02-28T11:00:49;11.07;;;8.32;;
27505;SDS011;14939;43.596;1.320;2023-02-28T11:03:29;12.07;;;8.60;;
27505;SDS011;14939;43.596;1.320;2023-02-28T11:06:04;12.82;;;9.02;;
27505;SDS011;14939;43.596;1.320;2023-02-28T11:08:52;12.40;;;9.23;;
27505;SDS011;14939;43.596;1.320;2023-02-28T11:11:24;14.80;;;9.53;;
27505;SDS011;14939;43.596;1.320;2023-02-28T11:13:53;13.00;;;7.65;;
27505;SDS011;14939;43.596;1.320;2023-02-28T11:16:22;14.35;;;9.05;;
27505;SDS011;14939;43.596;1.320;2023-02-28T11:19:01;12.20;;;8.27;;
27505;SDS011;14939;43.596;1.320;2023-02-28T11:21:29;12.07;;;8.38;;
27505;SDS011;14939;43.596;1.320;2023-02-28T11:26:41;9.77;;;7.63;;
27505;SDS011;14939;43.596;1.320;2023-02-28T11:32:16;12.38;;;8.45;;
27505;SDS011;14939;43.596;1.320;2023-02-28T11:37:33;14.75;;;8.82;;
27505;SDS011;14939;43.596;1.320;2023-02-28T11:40:00;10.65;;;7.97;;
27505;SDS011;14939;43.596;1.320;2023-02-28T11:53:21;12.90;;;9.18;;
27505;SDS011;14939;43.596;1.320;2023-02-28T11:59:14;13.90;;;8.77;;
27505;SDS011;14939;43.596;1.320;2023-02-28T12:10:37;9.75;;;7.03;;
27505;SDS011;14939;43.596;1.320;2023-02-28T12:27:12;10.23;;;8.00;;
27505;SDS011;14939;43.596;1.320;2023-02-28T12:32:13;11.10;;;8.15;;
27505;SDS011;14939;43.596;1.320;2023-02-28T12:35:00;10.10;;;7.68;;
27505;SDS011;14939;43.596;1.320;2023-02-28T12:37:41;10.43;;;7.43;;
27505;SDS011;14939;43.596;1.320;2023-02-28T12:40:23;12.00;;;8.45;;
27505;SDS011;14939;43.596;1.320;2023-02-28T12:42:58;11.05;;;7.65;;
27505;SDS011;14939;43.596;1.320;2023-02-28T12:45:39;11.20;;;8.10;;
27505;SDS011;14939;43.596;1.320;2023-02-28T12:48:09;9.75;;;7.63;;
27505;SDS011;14939;43.596;1.320;2023-02-28T12:50:40;10.70;;;7.40;;
27505;SDS011;14939;43.596;1.320;2023-02-28T12:53:13;11.27;;;7.40;;
27505;SDS011;14939;43.596;1.320;2023-02-28T12:55:56;9.32;;;6.53;;
27505;SDS011;14939;43.596;1.320;2023-02-28T13:07:32;10.55;;;7.32;;
27505;SDS011;14939;43.596;1.320;2023-02-28T13:09:57;11.20;;;7.80;;
27505;SDS011;14939;43.596;1.320;2023-02-28T13:12:25;12.30;;;7.72;;
27505;SDS011;14939;43.596;1.320;2023-02-28T13:14:54;13.18;;;8.07;;
27505;SDS011;14939;43.596;1.320;2023-02-28T13:17:37;9.85;;;7.15;;
27505;SDS011;14939;43.596;1.320;2023-02-28T13:20:14;10.75;;;7.43;;
27505;SDS011;14939;43.596;1.320;2023-02-28T13:22:43;11.40;;;7.68;;
27505;SDS011;14939;43.596;1.320;2023-02-28T13:28:10;10.48;;;7.97;;
27505;SDS011;14939;43.596;1.320;2023-02-28T13:38:32;9.65;;;7.07;;
27505;SDS011;14939;43.596;1.320;2023-02-28T13:46:31;9.90;;;6.90;;
27505;SDS011;14939;43.596;1.320;2023-02-28T14:00:44;8.15;;;5.78;;
27505;SDS011;14939;43.596;1.320;2023-02-28T14:03:41;7.40;;;5.97;;
27505;SDS011;14939;43.596;1.320;2023-02-28T14:06:13;7.75;;;5.80;;
27505;SDS011;14939;43.596;1.320;2023-02-28T14:08:58;8.90;;;6.05;;
27505;SDS011;14939;43.596;1.320;2023-02-28T14:11:36;10.30;;;6.63;;
27505;SDS011;14939;43.596;1.320;2023-02-28T14:14:04;11.00;;;7.20;;
27505;SDS011;14939;43.596;1.320;2023-02-28T14:16:39;9.23;;;7.30;;
27505;SDS011;14939;43.596;1.320;2023-02-28T14:19:14;10.82;;;7.00;;
27505;SDS011;14939;43.596;1.320;2023-02-28T14:22:14;13.48;;;7.97;;
27505;SDS011;14939;43.596;1.320;2023-02-28T14:25:06;10.65;;;7.15;;
27505;SDS011;14939;43.596;1.320;2023-02-28T14:34:00;10.35;;;6.43;;
27505;SDS011;14939;43.596;1.320;2023-02-28T14:36:26;10.52;;;6.40;;
27505;SDS011;14939;43.596;1.320;2023-02-28T14:38:57;9.13;;;5.93;;
27505;SDS011;14939;43.596;1.320;2023-02-28T14:43:58;13.15;;;7.18;;
27505;SDS011;14939;43.596;1.320;2023-02-28T14:46:26;9.52;;;6.40;;
27505;SDS011;14939;43.596;1.320;2023-02-28T14:49:20;8.35;;;6.28;;
27505;SDS011;14939;43.596;1.320;2023-02-28T14:54:44;9.80;;;6.03;;
27505;SDS011;14939;43.596;1.320;2023-02-28T15:02:30;8.07;;;6.20;;
27505;SDS011;14939;43.596;1.320;2023-02-28T15:05:00;8.93;;;5.72;;
27505;SDS011;14939;43.596;1.320;2023-02-28T15:07:42;10.73;;;5.95;;
27505;SDS011;14939;43.596;1.320;2023-02-28T15:10:10;10.63;;;6.53;;
27505;SDS011;14939;43.596;1.320;2023-02-28T15:12:44;12.75;;;6.63;;
27505;SDS011;14939;43.596;1.320;2023-02-28T15:15:17;7.90;;;5.90;;
27505;SDS011;14939;43.596;1.320;2023-02-28T15:17:45;8.48;;;6.13;;
27505;SDS011;14939;43.596;1.320;2023-02-28T15:20:15;7.88;;;6.28;;
27505;SDS011;14939;43.596;1.320;2023-02-28T15:22:41;8.93;;;6.43;;
27505;SDS011;14939;43.596;1.320;2023-02-28T15:25:09;10.25;;;6.60;;
27505;SDS011;14939;43.596;1.320;2023-02-28T15:27:40;7.82;;;6.20;;
27505;SDS011;14939;43.596;1.320;2023-02-28T15:30:26;8.48;;;6.43;;
27505;SDS011;14939;43.596;1.320;2023-02-28T15:35:38;11.20;;;6.45;;
27505;SDS011;14939;43.596;1.320;2023-02-28T15:38:15;8.63;;;6.22;;
27505;SDS011;14939;43.596;1.320;2023-02-28T15:45:58;8.38;;;6.25;;
27505;SDS011;14939;43.596;1.320;2023-02-28T15:48:36;8.20;;;6.38;;
27505;SDS011;14939;43.596;1.320;2023-02-28T15:51:23;9.00;;;5.60;;
27505;SDS011;14939;43.596;1.320;2023-02-28T15:54:28;10.57;;;6.38;;
27505;SDS011;14939;43.596;1.320;2023-02-28T15:56:54;7.10;;;5.72;;
27505;SDS011;14939;43.596;1.320;2023-02-28T15:59:26;10.10;;;5.78;;
27505;SDS011;14939;43.596;1.320;2023-02-28T16:02:11;8.80;;;5.68;;
27505;SDS011;14939;43.596;1.320;2023-02-28T16:07:27;9.13;;;6.43;;
27505;SDS011;14939;43.596;1.320;2023-02-28T16:09:53;9.68;;;6.28;;
27505;SDS011;14939;43.596;1.320;2023-02-28T16:12:20;9.25;;;6.35;;
27505;SDS011;14939;43.596;1.320;2023-02-28T16:14:48;10.07;;;6.32;;
27505;SDS011;14939;43.596;1.320;2023-02-28T16:17:21;10.10;;;6.32;;
27505;SDS011;14939;43.596;1.320;2023-02-28T16:19:51;12.80;;;6.95;;
27505;SDS011;14939;43.596;1.320;2023-02-28T16:22:17;10.00;;;7.47;;
27505;SDS011;14939;43.596;1.320;2023-02-28T16:24:43;12.55;;;7.05;;
27505;SDS011;14939;43.596;1.320;2023-02-28T16:27:15;9.07;;;6.70;;
27505;SDS011;14939;43.596;1.320;2023-02-28T16:30:01;9.52;;;6.93;;
27505;SDS011;14939;43.596;1.320;2023-02-28T16:32:28;9.63;;;6.93;;
27505;SDS011;14939;43.596;1.320;2023-02-28T16:34:54;12.13;;;6.45;;
27505;SDS011;14939;43.596;1.320;2023-02-28T16:37:20;9.52;;;6.28;;
27505;SDS011;14939;43.596;1.320;2023-02-28T16:39:45;8.82;;;6.65;;
27505;SDS011;14939;43.596;1.320;2023-02-28T16:42:14;10.88;;;7.03;;
27505;SDS011;14939;43.596;1.320;2023-02-28T16:44:46;10.05;;;6.60;;
27505;SDS011;14939;43.596;1.320;2023-02-28T16:47:12;9.32;;;6.05;;
27505;SDS011;14939;43.596;1.320;2023-02-28T16:49:38;9.55;;;6.07;;
27505;SDS011;14939;43.596;1.320;2023-02-28T16:52:07;12.73;;;7.07;;
27505;SDS011;14939;43.596;1.320;2023-02-28T16:54:33;10.50;;;6.63;;
27505;SDS011;14939;43.596;1.320;2023-02-28T16:56:59;12.07;;;7.72;;
27505;SDS011;14939;43.596;1.320;2023-02-28T16:59:25;9.90;;;6.70;;
27505;SDS011;14939;43.596;1.320;2023-02-28T17:01:52;10.50;;;7.55;;
27505;SDS011;14939;43.596;1.320;2023-02-28T17:04:19;14.45;;;8.60;;
27505;SDS011;14939;43.596;1.320;2023-02-28T17:06:44;14.10;;;8.48;;
27505;SDS011;14939;43.596;1.320;2023-02-28T17:09:14;13.45;;;8.10;;
27505;SDS011;14939;43.596;1.320;2023-02-28T17:11:45;13.40;;;8.45;;
27505;SDS011;14939;43.596;1.320;2023-02-28T17:14:11;18.25;;;10.10;;
27505;SDS011;14939;43.596;1.320;2023-02-28T17:16:37;17.48;;;8.90;;
27505;SDS011;14939;43.596;1.320;2023-02-28T17:19:10;13.07;;;9.07;;
27505;SDS011;14939;43.596;1.320;2023-02-28T17:21:38;15.35;;;9.02;;
27505;SDS011;14939;43.596;1.320;2023-02-28T17:24:06;13.20;;;9.13;;
27505;SDS011;14939;43.596;1.320;2023-02-28T17:26:32;9.90;;;7.43;;
27505;SDS011;14939;43.596;1.320;2023-02-28T17:28:58;12.57;;;9.13;;
27505;SDS011;14939;43.596;1.320;2023-02-28T17:31:24;13.27;;;9.35;;
27505;SDS011;14939;43.596;1.320;2023-02-28T17:33:51;12.02;;;8.18;;
27505;SDS011;14939;43.596;1.320;2023-02-28T17:36:20;12.65;;;8.07;;
27505;SDS011;14939;43.596;1.320;2023-02-28T17:38:48;12.35;;;8.20;;
27505;SDS011;14939;43.596;1.320;2023-02-28T17:41:14;14.02;;;8.55;;
27505;SDS011;14939;43.596;1.320;2023-02-28T17:43:40;14.57;;;8.98;;
27505;SDS011;14939;43.596;1.320;2023-02-28T17:46:08;11.57;;;8.35;;
27505;SDS011;14939;43.596;1.320;2023-02-28T17:48:54;12.15;;;8.20;;
27505;SDS011;14939;43.596;1.320;2023-02-28T17:51:21;12.93;;;7.57;;